createdAt,value
2023-04-16T00:15:31.280Z,1007.6
2023-04-16T00:31:05.646Z,1007.7
2023-04-16T00:46:40.007Z,1007.7
2023-04-16T01:02:14.119Z,1007.8
2023-04-16T01:17:48.587Z,1007.8
2023-04-16T01:33:22.595Z,1008
2023-04-16T01:48:56.619Z,1008
2023-04-16T02:04:30.613Z,1008.1
2023-04-16T02:20:04.700Z,1008.2
2023-04-16T02:35:38.777Z,1008.4
2023-04-16T02:51:12.770Z,1008.5
2023-04-16T03:06:46.826Z,1008.6
2023-04-16T03:22:20.964Z,1008.7
2023-04-16T03:37:54.974Z,1008.7
2023-04-16T03:53:28.982Z,1008.9
2023-04-16T04:09:03.001Z,1009.1
2023-04-16T04:24:37.004Z,1009.2
2023-04-16T04:40:11.002Z,1009.3
2023-04-16T04:55:45.673Z,1009.5
2023-04-16T05:11:21.636Z,1009.6
2023-04-16T05:26:55.643Z,1009.7
2023-04-16T05:42:29.668Z,1010
2023-04-16T05:58:03.676Z,1010.2
2023-04-16T06:13:37.648Z,1010.2
2023-04-16T06:29:11.761Z,1010.4
2023-04-16T06:44:50.311Z,1010.5
2023-04-16T07:00:24.324Z,1010.7
2023-04-16T07:15:58.684Z,1010.9
2023-04-16T07:31:32.886Z,1011.1
2023-04-16T07:47:07.118Z,1011.2
2023-04-16T08:02:41.373Z,1011.4
2023-04-16T08:18:16.220Z,1011.6
2023-04-16T08:33:50.219Z,1011.7
2023-04-16T08:49:24.369Z,1011.9
2023-04-16T09:04:58.406Z,1012.1
2023-04-16T09:20:32.539Z,1012.2
2023-04-16T09:36:06.594Z,1012.4
2023-04-16T09:51:40.625Z,1012.5
2023-04-16T10:07:14.648Z,1012.7
2023-04-16T10:22:48.604Z,1012.8
2023-04-16T10:38:22.660Z,1012.9
2023-04-16T10:53:56.687Z,1012.9
2023-04-16T11:09:30.784Z,1013
2023-04-16T11:25:04.823Z,1013.1
2023-04-16T11:40:39.019Z,1013.2
2023-04-16T11:56:13.079Z,1013.3
2023-04-16T12:11:47.133Z,1013.4
2023-04-16T12:27:21.134Z,1013.4
2023-04-16T12:43:00.409Z,1013.5
2023-04-16T12:58:34.731Z,1013.5
2023-04-16T13:14:08.575Z,1013.6
2023-04-16T13:29:42.561Z,1013.6
2023-04-16T13:45:17.001Z,1013.8
2023-04-16T14:00:51.004Z,1013.8
2023-04-16T14:16:25.843Z,1013.9
2023-04-16T14:31:59.878Z,1014
2023-04-16T14:47:34.261Z,1014.1
2023-04-16T15:03:08.602Z,1014.2
2023-04-16T15:18:43.524Z,1014.2
2023-04-16T15:34:18.695Z,1014.3
2023-04-16T15:49:52.771Z,1014.4
2023-04-16T16:05:26.765Z,1014.5
2023-04-16T16:21:00.835Z,1014.5
2023-04-16T16:36:34.856Z,1014.5
2023-04-16T16:52:08.854Z,1014.6
2023-04-16T17:07:42.877Z,1014.8
2023-04-16T17:23:16.887Z,1015
2023-04-16T17:38:50.849Z,1015.1
2023-04-16T17:54:25.247Z,1015.2
2023-04-16T18:09:59.236Z,1015.3
2023-04-16T18:25:35.143Z,1015.4
2023-04-16T18:41:10.264Z,1015.5
2023-04-16T18:56:44.368Z,1015.7
2023-04-16T19:12:18.358Z,1015.8
2023-04-16T19:27:52.465Z,1015.7
2023-04-16T19:43:26.472Z,1015.7
2023-04-16T19:59:00.490Z,1015.8
2023-04-16T20:14:34.467Z,1015.9
2023-04-16T20:30:08.564Z,1015.9
2023-04-16T20:45:42.839Z,1015.9
2023-04-16T21:01:17.298Z,1015.9
2023-04-16T21:16:51.557Z,1015.9
2023-04-16T21:32:25.675Z,1015.9
2023-04-16T21:47:59.984Z,1015.9
2023-04-16T22:03:34.286Z,1015.9
2023-04-16T22:19:08.351Z,1016
2023-04-16T22:34:42.397Z,1016
2023-04-16T22:50:16.412Z,1016
2023-04-16T23:05:50.408Z,1016
2023-04-16T23:21:24.413Z,1016
2023-04-16T23:36:58.414Z,1016.1
2023-04-16T23:52:32.419Z,1016.1
